2019/12/12

美ら島エアーフェスタ2019 那覇空港 2019/12/7 sat

前日からずーと雨降りで、今までで最悪の那覇基地。いや、第9航空団発足の時の方が、酷かったかな・・

ROAH 070100Z 02029KT 9999 -RA SCT015 BKN020 OVC060 16/13 Q1020 RMK 3CU015 6CU020 8AS060 A3014

20191207_roah_100festa

もう雨だから、並ぶのもイヤだし、開門時間過ぎに到着

20191207_roah_101tower

来年は見ることができるか、この景色

20191207_roah_102f728879

まずは、お参りを

20191207_roah_103jta

すかさずJTAブースへ行って、Pさんと情報交換。お願いしたら、そろって写真に写ってくださいました。看板のキャラクター等は、偵察航空隊提供だそうです。しっかりステッカーも頂きました。

ROAH 070130Z 01030KT 9999 -RA FEW015 BKN020 OVC060 16/14 Q1021 RMK 2CU015 6CU020 8AS060 A3015

横殴りの雨の中、エプロンに突入

20191207_roah_104m5052

5052 P-3C VP-5

20191207_roah_105ja05rk

ANAはMROのTT

20191207_roah_106ja05rk

JA05RK B737-8Q3 JTAはジンベエジェット

20191207_roah_107f628959

F-15列線 304主体

20191207_roah_108f628959

62-8959 F-15J 204SQ

20191207_roah_109f428950

42-8950 F-15J 304SQ

20191207_roah_110f528957

52-8957 F-15J 304SQ

20191207_roah_111f428948

42-8948 F-15J 304SQ

20191207_roah_112f228931

22-8931 F-15J 304SQ

20191207_roah_113macw

第4移動警戒隊は、力が入ってました

20191207_roah_114macw

強風の為、アンテナを上げることはできず。となりの移動通信隊は、撮るの忘れてしまいました。

20191207_roah_115f228931

雨の中ですが、デモスクランブルが始まり

20191207_roah_116f228931

雨で滑らないでね

20191207_roah_117f428948

エンジンスタート

ROAH 070200Z 01027KT 8000 -RA SCT015 BKN020 OVC060 16/13 Q1020 RMK 3CU015 6CU020 8AS060 A3014

20191207_roah_118f228931

### デモスクランブル ###

#####

20191207_roah_120f228931

#931

20191207_roah_121f428948

#948 ファイターエリアまでタクシーの模様

20191207_roah_122cross

模擬急患空輸展示は、救急車の走行だけ

ROAH 070230Z 01032KT 7000 R36/2000N -RA FEW010 BKN015 OVC060 15/14 Q1020 RMK 2CU010 6CU015 8AS060 A3014

20191207_roah_123f228931

しばらくたって、先ほどタクシーアウトした機体が機動飛行へ

20191207_roah_124f428948

20191207_roah_125f428948

まあ、この雨ですから機動はなくて、離陸を見送るのみ

20191207_roah_126f028915

02-8915 F-15J 204SQ

20191207_roah_127r576909

ラストイヤーに突入

20191207_roah_128r576909

57-6909 RF-4E 501SQ

20191207_roah_129r576909

ギンギラのトラポが光ります

20191207_roah_130f978422

F-4 FINAL YEAR 2020 となります

20191207_roah_131f978422

97-8422 F-4EJk 301SQ

20191207_roah_132f978422

ファントム爺さんがお詫び

20191207_roah_133f978422

カエルファントムを那覇で見るのは、白頭鷲が来たばっかりの頃ぶりかな

20191207_roah_134f978422

20191207_roah_135f528955

密かに204SQは55周年

20191207_roah_136f528955

52-8955 F-15J 204SQ

20191207_roah_137t365695

36-5695 T-4 304SQ

南西空のT-4は、見ることが出来なかった

20191207_roah_138f038504

03-8504 F-2A 8SQ

20191207_roah_139f028920

02-8920 F-15J 304SQ 綱引き用と思われる

ROAH 070300Z 01032KT 9999 -RA FEW010 BKN020 OVC060 16/13 Q1020 RMK 2CU010 6CU020 8AS060 A3012

20191207_roah_140fbv

雨が降っていても人気だった消防小隊

20191207_roah_141ad

第9基地防空隊

20191207_roah_142jg

陸自には、NBC偵察車

20191207_roah_143pac

PAC3は、どこか確認忘れ

20191207_roah_144h984588

98-4588 UH-60J NAHA-ARS

20191207_roah_145h184575

18-4575 UH-60J NAHA-ARS

20191207_roah_146h884586

88-4586 UH-60J NAHA-ARS

20191207_roah_147u623004

62-3004 U-125A NAHA-ARS

20191207_roah_148k073604

07-3604 KC-767J 404SQ

20191207_roah_149k073604

20191207_roah_150c681203

68-1203 KC-2 403SQ

20191207_roah_151c681203

20191207_roah_152c681203

20191207_roah_153c681203

20191207_roah_154h374489

37-4489 CH-47J(LR) NAHA-HT

20191207_roah_155h374489

今年はミニチュアの出し物があったそうですが、雨で展示なし

20191207_roah_156h374489

ここが展示の一番南側、ここまで来たのは初めて

20191207_roah_157f228933

直ぐ目の前にファイターの待機所

ROAH 070330Z 01028G41KT 9999 -SHRA SCT010 BKN020 OVC060 16/14 Q1019 RMK 4CU010 5CU020 8AS060 A3011

20191207_roah_158f228931

C-2の中でロードマスターさんと盛り上がってたら、着陸を逃してしまった。

20191207_roah_159f228931

結局フライトは、コレだけ 後は全部キャンセル

20191207_roah_160k073604

風雨が少し収まったので、KCの機内展示が始まりました。

20191207_roah_161k073604

座席が全てセットされたコンフィグでした。

20191207_roah_162k073604

唯一の窓

20191207_roah_163k073604

セーフティ・インストラクション

20191207_roah_164k073604

ブーマーさんとお話してから、降機

ROAH 070400Z 02021G34KT 9999 -SHRA SCT015 BKN020 OVC060 16/14 Q1019 RMK 3CU015 5CU020 8AS060 A3010

20191207_roah_165tengu

天狗さまは、格納庫の中で

20191207_roah_166f328086

32-8086 F-15DJ 304SQ

20191207_roah_167f828965

82-8965 F-15J 204SQ

20191207_roah_168tcot

唯一飴ちゃんの展示

20191207_roah_169tcot

Theater Control Operations Team

20191207_roah_170f228932

22-8932 F-15J 304SQ

20191207_roah_171tengu

CAさんパチ

ROAH 070430Z 01030KT 7000 -SHRA SCT010 BKN020 16/14 Q1019 RMK 3CU010 6CU020 A3010

20191207_roah_172jg43111

午前もあった、陸自によるレスキューフライト

20191207_roah_173jg43111

JG43111 UH-60JA XV

20191207_roah_174asr

20191207_roah_175asr

那覇救難隊は手持ち無沙汰

ROAH 070500Z 01027KT 9999 -SHRA FEW015 BKN020 OVC060 16/14 Q1019 RMK 2CU015 5CU020 8AS060 A3010

20191207_roah_176vp5

海自さんブースでは、無料グッズ配布

ROAH 070530Z 01028KT 9999 -SHRA FEW013 SCT020 BKN050 16/14 Q1019 RMK 2CU013 3CU020 5SC050 A3009

20191207_roah_177m5053

エアフェスの間も、実任務は行われています。

20191207_roah_178m5053

パトロールから帰ってきたP-3がウォッシュラックへ

20191207_roah_179m5053

5053 P-3C VP-5

20191207_roah_180m5053

パパさんは、いつも働きもの

ROAH 070600Z 01024KT 9999 R36/P2000N -SHRA FEW012 SCT020 BKN045 17/14 Q1018 RMK 2CU012 3CU020 5SC045 A3009

20191207_roah_181jg43111

レスキューフライトが帰ってきました。

20191207_roah_182jg43111

15へり隊格納庫の脇に那覇消防の救急車が待機しています。

ROAH 070630Z 02023KT 9999 -SHRA FEW012 SCT020 BKN045 17/14 Q1019 RMK 1CU012 4CU020 5SC045 A3010

20191207_roah_183jg43111

今日は雨なので、エンジンカットして格納庫内へ、そこで受け渡し

ROAH 070700Z 01025KT 9999 -SHRA FEW015 SCT020 BKN050 17/12 Q1019 RMK 1CU015 3CU020 6SC050 A3010

20191207_roah_184jg

風が弱くなって、基地防空隊のレーダーが立っていました。

20191207_roah_185f978422

ラストにファントムさんを収めて

20191207_roah_186f978422

20191207_roah_187r576909

20191207_roah_188r576909

これで見納めとなる実感が湧かない。

ROAH 070919Z 02019G30KT 360V060 9999 SCT018 SCT025 BKN070 17/14 Q1020 RMK 3CU018 4CU025 7AC070 A3013

基地を退場して、次へ転戦の為空港へ

20191207_roah_189airfes

夜の帳も降りて、ターミナルのピアからプロジェクションマッピングを見る

20191207_roah_190f15

眺めていると、オヤ15の航跡 アラートか?

20191207_roah_191airfes

那覇の夜を後にして、福岡へ

 

| | コメント (0)

2019/12/11

雨那覇 那覇空港 2019/12/6 fri

SKY507で一路那覇へ

201911206_roah_00ja73np

雲の上は、綺麗な青空 当たり前か・・

201911206_roah_01ja615j

JAL916 ROAH-RJTT JA615J B767-346ER

201911206_roah_02f4

酷い雨空の中に、F4を2機確認

ROAH 060730Z 03015KT 5000 RA FEW010 SCT015 OVC060 16/15 Q1019 RMK 2CU010 3CU015 8AS060 A3012

201911206_roah_03m5087

ウォッシュラックから戻って来るパパさん

201911206_roah_04m5087

雨でも怠り無くパトロール

201911206_roah_05m5087

5087 P-3C VP-5

201911206_roah_06ja06rk

JTA37 RJNK-ROAH JA06RK B737-8Q3

201911206_roah_07ja06rk

待ち人来たり・・ 到着ロビーへ向かいます

201911206_roah_08f2

ふと見ると、F2さんがドナドナされてきました。明日も雨だよなー。

| | コメント (0)

«嵐まえ 福岡空港 2019/12/6 fri